sensor_id;sensor_type;location;lat;lon;timestamp;pressure;altitude;pressure_sealevel;temperature;humidity
80682;BME280;70045;40.200;44.582;2023-07-31T00:00:27;85860.97;;;23.63;41.85
80682;BME280;70045;40.200;44.582;2023-07-31T00:02:54;85867.19;;;23.65;41.60
80682;BME280;70045;40.200;44.582;2023-07-31T00:05:19;85870.56;;;23.66;41.44
80682;BME280;70045;40.200;44.582;2023-07-31T00:07:48;85872.94;;;23.69;42.02
80682;BME280;70045;40.200;44.582;2023-07-31T00:10:13;85860.44;;;23.70;41.59
80682;BME280;70045;40.200;44.582;2023-07-31T00:12:40;85866.41;;;23.76;41.58
80682;BME280;70045;40.200;44.582;2023-07-31T00:15:07;85871.44;;;23.85;41.78
80682;BME280;70045;40.200;44.582;2023-07-31T00:17:32;85869.66;;;23.99;41.36
80682;BME280;70045;40.200;44.582;2023-07-31T00:20:00;85869.81;;;24.07;41.60
80682;BME280;70045;40.200;44.582;2023-07-31T00:22:26;85867.63;;;24.11;40.99
80682;BME280;70045;40.200;44.582;2023-07-31T00:24:51;85871.72;;;24.12;41.56
80682;BME280;70045;40.200;44.582;2023-07-31T00:27:17;85868.84;;;24.10;41.51
80682;BME280;70045;40.200;44.582;2023-07-31T00:29:42;85878.47;;;24.13;41.63
80682;BME280;70045;40.200;44.582;2023-07-31T00:32:10;85869.78;;;24.13;42.20
80682;BME280;70045;40.200;44.582;2023-07-31T00:34:37;85874.38;;;24.12;42.18
80682;BME280;70045;40.200;44.582;2023-07-31T00:37:03;85872.03;;;24.03;41.75
80682;BME280;70045;40.200;44.582;2023-07-31T00:39:30;85884.25;;;24.06;41.94
80682;BME280;70045;40.200;44.582;2023-07-31T00:41:55;85881.41;;;24.04;41.50
80682;BME280;70045;40.200;44.582;2023-07-31T00:44:23;85885.53;;;23.99;42.50
80682;BME280;70045;40.200;44.582;2023-07-31T00:46:49;85890.09;;;23.99;41.97
80682;BME280;70045;40.200;44.582;2023-07-31T00:49:15;85888.22;;;23.94;42.32
80682;BME280;70045;40.200;44.582;2023-07-31T00:51:41;85892.75;;;23.99;42.00
80682;BME280;70045;40.200;44.582;2023-07-31T00:54:06;85887.69;;;24.01;42.18
80682;BME280;70045;40.200;44.582;2023-07-31T00:56:35;85886.25;;;24.00;42.44
80682;BME280;70045;40.200;44.582;2023-07-31T00:59:00;85886.69;;;24.04;42.12
80682;BME280;70045;40.200;44.582;2023-07-31T01:01:26;85898.94;;;24.07;42.11
80682;BME280;70045;40.200;44.582;2023-07-31T01:03:52;85891.00;;;24.07;42.31
80682;BME280;70045;40.200;44.582;2023-07-31T01:06:46;85896.75;;;24.11;42.66
80682;BME280;70045;40.200;44.582;2023-07-31T01:09:35;85898.72;;;24.05;42.74
80682;BME280;70045;40.200;44.582;2023-07-31T01:12:03;85902.66;;;23.93;42.67
80682;BME280;70045;40.200;44.582;2023-07-31T01:14:29;85911.63;;;23.84;42.44
80682;BME280;70045;40.200;44.582;2023-07-31T01:16:54;85904.47;;;23.73;42.50
80682;BME280;70045;40.200;44.582;2023-07-31T01:19:25;85904.97;;;23.66;42.96
80682;BME280;70045;40.200;44.582;2023-07-31T01:22:32;85909.09;;;23.61;42.83
80682;BME280;70045;40.200;44.582;2023-07-31T01:27:59;85915.66;;;23.49;43.22
80682;BME280;70045;40.200;44.582;2023-07-31T01:30:32;85911.56;;;23.48;43.52
80682;BME280;70045;40.200;44.582;2023-07-31T01:32:58;85923.34;;;23.47;42.92
80682;BME280;70045;40.200;44.582;2023-07-31T01:35:23;85917.34;;;23.46;42.92
80682;BME280;70045;40.200;44.582;2023-07-31T01:37:52;85916.13;;;23.47;43.60
80682;BME280;70045;40.200;44.582;2023-07-31T01:40:18;85924.78;;;23.48;43.63
80682;BME280;70045;40.200;44.582;2023-07-31T01:42:46;85920.22;;;23.48;43.80
80682;BME280;70045;40.200;44.582;2023-07-31T01:45:12;85921.66;;;23.49;43.78
80682;BME280;70045;40.200;44.582;2023-07-31T01:47:37;85917.06;;;23.50;43.55
80682;BME280;70045;40.200;44.582;2023-07-31T01:50:03;85923.34;;;23.53;43.68
80682;BME280;70045;40.200;44.582;2023-07-31T01:52:28;85926.88;;;23.61;43.40
80682;BME280;70045;40.200;44.582;2023-07-31T01:54:56;85933.34;;;23.65;43.33
80682;BME280;70045;40.200;44.582;2023-07-31T01:57:22;85922.31;;;23.61;43.19
80682;BME280;70045;40.200;44.582;2023-07-31T01:59:47;85935.28;;;23.65;43.28
80682;BME280;70045;40.200;44.582;2023-07-31T02:02:13;85939.84;;;23.70;43.03
80682;BME280;70045;40.200;44.582;2023-07-31T02:04:38;85930.69;;;23.71;43.05
80682;BME280;70045;40.200;44.582;2023-07-31T02:07:06;85940.31;;;23.68;43.28
80682;BME280;70045;40.200;44.582;2023-07-31T02:09:32;85934.06;;;23.66;42.87
80682;BME280;70045;40.200;44.582;2023-07-31T02:11:57;85936.97;;;23.68;43.19
80682;BME280;70045;40.200;44.582;2023-07-31T02:14:23;85936.50;;;23.64;43.14
80682;BME280;70045;40.200;44.582;2023-07-31T02:16:48;85940.81;;;23.67;42.86
80682;BME280;70045;40.200;44.582;2023-07-31T02:19:16;85938.44;;;23.63;43.20
80682;BME280;70045;40.200;44.582;2023-07-31T02:21:42;85942.53;;;23.59;42.87
80682;BME280;70045;40.200;44.582;2023-07-31T02:24:07;85949.50;;;23.62;42.72
80682;BME280;70045;40.200;44.582;2023-07-31T02:26:32;85946.63;;;23.60;42.59
80682;BME280;70045;40.200;44.582;2023-07-31T02:28:58;85949.50;;;23.62;42.04
80682;BME280;70045;40.200;44.582;2023-07-31T02:31:26;85944.91;;;23.62;41.54
80682;BME280;70045;40.200;44.582;2023-07-31T02:33:51;85955.72;;;23.70;41.16
80682;BME280;70045;40.200;44.582;2023-07-31T02:36:17;85950.16;;;23.74;41.29
80682;BME280;70045;40.200;44.582;2023-07-31T02:38:42;85960.00;;;23.79;41.06
80682;BME280;70045;40.200;44.582;2023-07-31T02:41:08;85957.13;;;23.82;40.91
80682;BME280;70045;40.200;44.582;2023-07-31T02:43:36;85955.19;;;23.83;40.88
80682;BME280;70045;40.200;44.582;2023-07-31T02:46:01;85955.91;;;23.83;40.74
80682;BME280;70045;40.200;44.582;2023-07-31T02:48:27;85957.59;;;23.81;40.92
80682;BME280;70045;40.200;44.582;2023-07-31T02:50:53;85957.34;;;23.84;40.57
80682;BME280;70045;40.200;44.582;2023-07-31T02:53:18;85964.09;;;23.85;40.57
80682;BME280;70045;40.200;44.582;2023-07-31T02:55:47;85954.22;;;23.80;40.79
80682;BME280;70045;40.200;44.582;2023-07-31T02:58:12;85947.28;;;23.72;40.51
80682;BME280;70045;40.200;44.582;2023-07-31T03:00:44;85962.66;;;23.79;40.59
80682;BME280;70045;40.200;44.582;2023-07-31T03:03:10;85960.50;;;23.77;40.40
80682;BME280;70045;40.200;44.582;2023-07-31T03:05:35;85957.63;;;23.75;40.78
80682;BME280;70045;40.200;44.582;2023-07-31T03:08:04;85968.41;;;23.83;40.66
80682;BME280;70045;40.200;44.582;2023-07-31T03:10:29;85970.59;;;23.84;40.38
80682;BME280;70045;40.200;44.582;2023-07-31T03:12:54;85962.91;;;23.81;40.13
80682;BME280;70045;40.200;44.582;2023-07-31T03:15:20;85968.16;;;23.86;40.07
80682;BME280;70045;40.200;44.582;2023-07-31T03:17:45;85940.53;;;23.71;40.26
80682;BME280;70045;40.200;44.582;2023-07-31T03:20:14;85973.94;;;23.91;40.00
80682;BME280;70045;40.200;44.582;2023-07-31T03:22:39;85976.31;;;23.88;40.01
80682;BME280;70045;40.200;44.582;2023-07-31T03:25:05;85971.50;;;23.93;40.44
80682;BME280;70045;40.200;44.582;2023-07-31T03:27:30;85975.31;;;23.97;40.12
80682;BME280;70045;40.200;44.582;2023-07-31T03:29:56;85971.94;;;23.97;39.93
80682;BME280;70045;40.200;44.582;2023-07-31T03:32:25;85973.41;;;23.98;40.14
80682;BME280;70045;40.200;44.582;2023-07-31T03:34:50;85979.84;;;24.02;39.82
80682;BME280;70045;40.200;44.582;2023-07-31T03:37:16;85972.16;;;24.04;39.77
80682;BME280;70045;40.200;44.582;2023-07-31T03:39:41;85967.56;;;24.05;39.63
80682;BME280;70045;40.200;44.582;2023-07-31T03:42:06;85975.69;;;24.18;39.63
80682;BME280;70045;40.200;44.582;2023-07-31T03:44:35;85973.72;;;24.24;39.53
80682;BME280;70045;40.200;44.582;2023-07-31T03:47:00;85969.13;;;24.25;39.16
80682;BME280;70045;40.200;44.582;2023-07-31T03:49:26;85974.41;;;24.25;39.44
80682;BME280;70045;40.200;44.582;2023-07-31T03:51:51;85970.84;;;24.22;39.60
80682;BME280;70045;40.200;44.582;2023-07-31T03:54:16;85969.38;;;24.21;39.40
80682;BME280;70045;40.200;44.582;2023-07-31T03:56:45;85967.91;;;24.26;39.03
80682;BME280;70045;40.200;44.582;2023-07-31T03:59:10;85971.00;;;24.30;39.13
80682;BME280;70045;40.200;44.582;2023-07-31T04:01:35;85974.63;;;24.33;39.29
80682;BME280;70045;40.200;44.582;2023-07-31T04:04:01;85971.47;;;24.34;39.35
80682;BME280;70045;40.200;44.582;2023-07-31T04:06:26;85972.63;;;24.39;39.10
80682;BME280;70045;40.200;44.582;2023-07-31T04:08:54;85980.31;;;24.42;39.23
80682;BME280;70045;40.200;44.582;2023-07-31T04:11:20;85976.28;;;24.36;39.35
80682;BME280;70045;40.200;44.582;2023-07-31T04:13:45;85976.97;;;24.42;39.22
80682;BME280;70045;40.200;44.582;2023-07-31T04:16:11;85979.81;;;24.44;39.44
80682;BME280;70045;40.200;44.582;2023-07-31T04:18:37;85978.84;;;24.47;39.32
80682;BME280;70045;40.200;44.582;2023-07-31T04:21:05;85977.88;;;24.50;39.37
80682;BME280;70045;40.200;44.582;2023-07-31T04:23:31;85979.06;;;24.55;38.89
80682;BME280;70045;40.200;44.582;2023-07-31T04:25:56;85981.72;;;24.49;39.39
80682;BME280;70045;40.200;44.582;2023-07-31T04:28:22;85971.97;;;24.33;39.61
80682;BME280;70045;40.200;44.582;2023-07-31T04:30:47;85970.75;;;24.34;39.48
80682;BME280;70045;40.200;44.582;2023-07-31T04:33:15;85977.94;;;24.39;39.31
80682;BME280;70045;40.200;44.582;2023-07-31T04:35:41;85981.13;;;24.32;39.31
80682;BME280;70045;40.200;44.582;2023-07-31T04:38:06;85973.41;;;24.34;38.97
80682;BME280;70045;40.200;44.582;2023-07-31T04:40:32;85976.50;;;24.38;39.26
80682;BME280;70045;40.200;44.582;2023-07-31T04:42:57;85971.44;;;24.40;39.16
80682;BME280;70045;40.200;44.582;2023-07-31T04:45:25;85983.63;;;24.54;38.78
80682;BME280;70045;40.200;44.582;2023-07-31T04:47:51;85969.63;;;24.59;38.87
80682;BME280;70045;40.200;44.582;2023-07-31T04:50:16;85969.06;;;24.67;38.38
80682;BME280;70045;40.200;44.582;2023-07-31T04:52:41;85964.69;;;24.75;38.44
80682;BME280;70045;40.200;44.582;2023-07-31T04:55:07;85938.03;;;24.61;38.37
80682;BME280;70045;40.200;44.582;2023-07-31T04:57:35;85961.53;;;24.76;38.25
80682;BME280;70045;40.200;44.582;2023-07-31T05:00:01;85959.94;;;24.68;38.32
80682;BME280;70045;40.200;44.582;2023-07-31T05:02:26;85965.16;;;24.79;38.16
80682;BME280;70045;40.200;44.582;2023-07-31T05:04:52;85978.06;;;24.88;38.12
80682;BME280;70045;40.200;44.582;2023-07-31T05:07:17;85967.53;;;24.77;37.99
80682;BME280;70045;40.200;44.582;2023-07-31T05:09:45;85967.88;;;24.68;38.13
80682;BME280;70045;40.200;44.582;2023-07-31T05:12:11;85941.16;;;24.66;38.58
80682;BME280;70045;40.200;44.582;2023-07-31T05:14:36;85966.34;;;25.03;37.87
80682;BME280;70045;40.200;44.582;2023-07-31T05:17:02;85960.06;;;25.06;37.61
80682;BME280;70045;40.200;44.582;2023-07-31T05:19:27;85968.44;;;25.10;37.85
80682;BME280;70045;40.200;44.582;2023-07-31T05:21:55;85963.91;;;25.05;37.62
80682;BME280;70045;40.200;44.582;2023-07-31T05:24:21;85959.50;;;25.13;37.29
80682;BME280;70045;40.200;44.582;2023-07-31T05:26:46;85956.25;;;25.26;37.66
80682;BME280;70045;40.200;44.582;2023-07-31T05:29:12;85961.53;;;25.31;37.02
80682;BME280;70045;40.200;44.582;2023-07-31T05:31:38;85965.03;;;25.40;37.26
80682;BME280;70045;40.200;44.582;2023-07-31T05:34:06;85962.75;;;25.49;36.95
80682;BME280;70045;40.200;44.582;2023-07-31T05:36:31;85959.81;;;25.53;37.30
80682;BME280;70045;40.200;44.582;2023-07-31T05:38:57;85963.78;;;25.65;37.24
80682;BME280;70045;40.200;44.582;2023-07-31T05:41:23;85963.59;;;25.82;36.46
80682;BME280;70045;40.200;44.582;2023-07-31T05:43:48;85958.97;;;25.83;36.56
80682;BME280;70045;40.200;44.582;2023-07-31T05:46:16;85960.66;;;26.05;35.95
80682;BME280;70045;40.200;44.582;2023-07-31T05:48:42;85959.78;;;26.16;36.09
80682;BME280;70045;40.200;44.582;2023-07-31T05:51:07;85967.41;;;26.25;35.82
80682;BME280;70045;40.200;44.582;2023-07-31T05:53:32;85957.63;;;26.33;36.06
80682;BME280;70045;40.200;44.582;2023-07-31T05:55:58;85960.22;;;26.20;35.69
80682;BME280;70045;40.200;44.582;2023-07-31T05:58:26;85974.63;;;26.43;35.75
80682;BME280;70045;40.200;44.582;2023-07-31T06:00:51;85967.63;;;26.59;35.79
80682;BME280;70045;40.200;44.582;2023-07-31T06:03:17;85961.19;;;26.55;36.15
80682;BME280;70045;40.200;44.582;2023-07-31T06:05:42;85962.88;;;26.71;35.57
80682;BME280;70045;40.200;44.582;2023-07-31T06:08:08;85968.34;;;26.60;35.62
80682;BME280;70045;40.200;44.582;2023-07-31T06:10:39;85958.06;;;26.50;35.73
80682;BME280;70045;40.200;44.582;2023-07-31T06:13:05;85970.22;;;26.65;36.14
80682;BME280;70045;40.200;44.582;2023-07-31T06:15:30;85965.94;;;26.62;36.14
80682;BME280;70045;40.200;44.582;2023-07-31T06:17:56;85968.31;;;26.79;35.95
80682;BME280;70045;40.200;44.582;2023-07-31T06:20:28;85966.06;;;26.83;35.58
80682;BME280;70045;40.200;44.582;2023-07-31T06:22:57;85967.44;;;26.90;35.76
80682;BME280;70045;40.200;44.582;2023-07-31T06:25:22;85954.75;;;26.96;35.70
80682;BME280;70045;40.200;44.582;2023-07-31T06:27:47;85967.66;;;27.05;35.56
80682;BME280;70045;40.200;44.582;2023-07-31T06:30:13;85963.75;;;27.06;35.31
80682;BME280;70045;40.200;44.582;2023-07-31T06:32:38;85959.88;;;27.07;35.83
80682;BME280;70045;40.200;44.582;2023-07-31T06:35:07;85957.81;;;27.00;35.55
80682;BME280;70045;40.200;44.582;2023-07-31T06:37:32;85961.00;;;26.98;35.84
80682;BME280;70045;40.200;44.582;2023-07-31T06:39:58;85953.13;;;27.06;35.91
80682;BME280;70045;40.200;44.582;2023-07-31T06:42:23;85959.38;;;27.22;35.47
80682;BME280;70045;40.200;44.582;2023-07-31T06:44:49;85951.63;;;27.24;35.64
80682;BME280;70045;40.200;44.582;2023-07-31T06:47:17;85953.19;;;27.33;34.78
80682;BME280;70045;40.200;44.582;2023-07-31T06:49:43;85956.25;;;27.37;35.39
80682;BME280;70045;40.200;44.582;2023-07-31T06:52:08;85935.75;;;27.32;35.06
80682;BME280;70045;40.200;44.582;2023-07-31T06:54:34;85949.69;;;27.51;34.74
80682;BME280;70045;40.200;44.582;2023-07-31T06:56:59;85947.00;;;27.51;34.39
80682;BME280;70045;40.200;44.582;2023-07-31T06:59:27;85958.16;;;27.63;34.60
80682;BME280;70045;40.200;44.582;2023-07-31T07:01:53;85942.31;;;27.57;34.51
80682;BME280;70045;40.200;44.582;2023-07-31T07:04:18;85951.72;;;27.72;34.63
80682;BME280;70045;40.200;44.582;2023-07-31T07:06:44;85945.94;;;27.81;34.57
80682;BME280;70045;40.200;44.582;2023-07-31T07:09:09;85949.44;;;27.89;34.52
80682;BME280;70045;40.200;44.582;2023-07-31T07:11:37;85944.53;;;27.93;33.57
80682;BME280;70045;40.200;44.582;2023-07-31T07:14:05;85940.22;;;28.04;33.61
80682;BME280;70045;40.200;44.582;2023-07-31T07:16:31;85940.81;;;28.10;33.38
80682;BME280;70045;40.200;44.582;2023-07-31T07:18:56;85937.69;;;28.19;33.44
80682;BME280;70045;40.200;44.582;2023-07-31T07:21:25;85946.69;;;28.29;34.15
80682;BME280;70045;40.200;44.582;2023-07-31T07:23:54;85938.19;;;28.52;33.48
80682;BME280;70045;40.200;44.582;2023-07-31T07:26:19;85952.03;;;28.29;33.44
80682;BME280;70045;40.200;44.582;2023-07-31T07:28:44;85933.84;;;28.41;32.92
80682;BME280;70045;40.200;44.582;2023-07-31T07:31:10;85928.59;;;28.49;33.07
80682;BME280;70045;40.200;44.582;2023-07-31T07:33:35;85935.13;;;28.61;33.20
80682;BME280;70045;40.200;44.582;2023-07-31T07:36:09;85938.34;;;28.67;32.75
80682;BME280;70045;40.200;44.582;2023-07-31T07:38:35;85931.66;;;28.74;32.56
80682;BME280;70045;40.200;44.582;2023-07-31T07:41:01;85935.44;;;28.79;32.40
80682;BME280;70045;40.200;44.582;2023-07-31T07:43:26;85933.81;;;28.76;32.46
80682;BME280;70045;40.200;44.582;2023-07-31T07:45:51;85931.59;;;28.87;32.70
80682;BME280;70045;40.200;44.582;2023-07-31T07:48:19;85921.50;;;28.93;32.77
80682;BME280;70045;40.200;44.582;2023-07-31T07:50:45;85927.97;;;29.06;32.67
80682;BME280;70045;40.200;44.582;2023-07-31T07:53:10;85925.97;;;29.20;32.19
80682;BME280;70045;40.200;44.582;2023-07-31T07:55:36;85920.72;;;29.35;32.14
80682;BME280;70045;40.200;44.582;2023-07-31T07:58:01;85918.81;;;29.43;31.48
80682;BME280;70045;40.200;44.582;2023-07-31T08:00:29;85917.19;;;29.40;31.34
80682;BME280;70045;40.200;44.582;2023-07-31T08:02:55;85914.00;;;29.42;31.68
80682;BME280;70045;40.200;44.582;2023-07-31T08:05:23;85907.03;;;29.39;31.55
80682;BME280;70045;40.200;44.582;2023-07-31T08:07:48;85901.56;;;29.44;31.22
80682;BME280;70045;40.200;44.582;2023-07-31T08:10:14;85899.53;;;29.66;31.10
80682;BME280;70045;40.200;44.582;2023-07-31T08:12:42;85900.69;;;29.78;30.88
80682;BME280;70045;40.200;44.582;2023-07-31T08:15:08;85906.31;;;29.67;30.89
80682;BME280;70045;40.200;44.582;2023-07-31T08:17:33;85905.09;;;29.39;31.04
80682;BME280;70045;40.200;44.582;2023-07-31T08:20:08;85898.31;;;29.38;31.04
80682;BME280;70045;40.200;44.582;2023-07-31T08:22:33;85897.19;;;29.55;31.32
80682;BME280;70045;40.200;44.582;2023-07-31T08:25:03;85890.81;;;29.73;30.91
80682;BME280;70045;40.200;44.582;2023-07-31T08:27:28;85890.22;;;29.88;30.52
80682;BME280;70045;40.200;44.582;2023-07-31T08:29:57;85892.72;;;29.94;30.42
80682;BME280;70045;40.200;44.582;2023-07-31T08:32:24;85875.25;;;29.93;30.29
80682;BME280;70045;40.200;44.582;2023-07-31T08:34:50;85876.38;;;30.13;30.33
80682;BME280;70045;40.200;44.582;2023-07-31T08:37:18;85879.97;;;30.31;29.95
80682;BME280;70045;40.200;44.582;2023-07-31T08:39:44;85879.84;;;30.44;29.76
80682;BME280;70045;40.200;44.582;2023-07-31T08:42:09;85882.00;;;30.46;28.97
80682;BME280;70045;40.200;44.582;2023-07-31T08:44:36;85874.31;;;30.50;29.50
80682;BME280;70045;40.200;44.582;2023-07-31T08:47:02;85874.16;;;30.71;29.14
80682;BME280;70045;40.200;44.582;2023-07-31T08:49:31;85870.25;;;30.72;28.81
80682;BME280;70045;40.200;44.582;2023-07-31T08:51:57;85869.88;;;30.83;28.85
80682;BME280;70045;40.200;44.582;2023-07-31T08:54:23;85872.03;;;30.92;28.70
80682;BME280;70045;40.200;44.582;2023-07-31T08:56:49;85870.09;;;31.08;28.77
80682;BME280;70045;40.200;44.582;2023-07-31T08:59:16;85871.53;;;31.09;28.17
80682;BME280;70045;40.200;44.582;2023-07-31T09:01:49;85870.97;;;31.11;28.65
80682;BME280;70045;40.200;44.582;2023-07-31T09:04:16;85862.38;;;31.35;28.98
80682;BME280;70045;40.200;44.582;2023-07-31T09:06:44;85863.78;;;31.60;27.52
80682;BME280;70045;40.200;44.582;2023-07-31T09:09:10;85862.69;;;31.55;27.70
80682;BME280;70045;40.200;44.582;2023-07-31T09:11:36;85856.81;;;31.97;27.59
80682;BME280;70045;40.200;44.582;2023-07-31T09:14:11;85860.78;;;32.70;26.67
80682;BME280;70045;40.200;44.582;2023-07-31T09:16:59;85866.06;;;33.45;26.00
80682;BME280;70045;40.200;44.582;2023-07-31T09:19:35;85852.69;;;33.80;24.30
80682;BME280;70045;40.200;44.582;2023-07-31T09:22:04;85850.94;;;33.75;23.96
80682;BME280;70045;40.200;44.582;2023-07-31T09:24:43;85842.50;;;34.23;23.93
80682;BME280;70045;40.200;44.582;2023-07-31T09:27:14;85847.00;;;35.02;23.17
80682;BME280;70045;40.200;44.582;2023-07-31T09:30:00;85836.19;;;35.59;22.37
80682;BME280;70045;40.200;44.582;2023-07-31T09:32:33;85830.41;;;35.92;22.15
80682;BME280;70045;40.200;44.582;2023-07-31T09:35:18;85834.53;;;36.32;21.85
80682;BME280;70045;40.200;44.582;2023-07-31T09:37:57;85834.09;;;36.86;21.56
80682;BME280;70045;40.200;44.582;2023-07-31T09:40:40;85833.50;;;37.29;21.18
80682;BME280;70045;40.200;44.582;2023-07-31T09:43:21;85835.56;;;36.68;21.08
80682;BME280;70045;40.200;44.582;2023-07-31T09:46:02;85822.22;;;37.33;20.12
80682;BME280;70045;40.200;44.582;2023-07-31T09:48:38;85824.88;;;37.21;20.17
80682;BME280;70045;40.200;44.582;2023-07-31T09:51:11;85821.97;;;37.28;20.00
80682;BME280;70045;40.200;44.582;2023-07-31T09:53:49;85825.50;;;37.62;20.13
80682;BME280;70045;40.200;44.582;2023-07-31T09:56:25;85825.69;;;38.65;19.61
80682;BME280;70045;40.200;44.582;2023-07-31T09:58:57;85820.81;;;39.08;18.94
80682;BME280;70045;40.200;44.582;2023-07-31T10:01:31;85823.03;;;39.47;19.19
80682;BME280;70045;40.200;44.582;2023-07-31T10:04:04;85822.44;;;39.61;18.68
80682;BME280;70045;40.200;44.582;2023-07-31T10:06:42;85819.63;;;39.59;18.64
80682;BME280;70045;40.200;44.582;2023-07-31T10:09:18;85818.06;;;39.79;18.66
80682;BME280;70045;40.200;44.582;2023-07-31T10:11:56;85812.56;;;39.91;17.77
80682;BME280;70045;40.200;44.582;2023-07-31T10:14:30;85819.00;;;40.21;18.19
80682;BME280;70045;40.200;44.582;2023-07-31T10:17:08;85804.47;;;40.54;17.90
80682;BME280;70045;40.200;44.582;2023-07-31T10:19:40;85810.09;;;40.58;17.71
80682;BME280;70045;40.200;44.582;2023-07-31T10:22:13;85802.13;;;40.48;17.13
80682;BME280;70045;40.200;44.582;2023-07-31T10:24:45;85808.31;;;40.63;16.99
80682;BME280;70045;40.200;44.582;2023-07-31T10:27:21;85807.22;;;41.08;17.15
80682;BME280;70045;40.200;44.582;2023-07-31T10:29:52;85805.75;;;41.32;17.45
80682;BME280;70045;40.200;44.582;2023-07-31T10:32:25;85807.38;;;41.37;16.40
80682;BME280;70045;40.200;44.582;2023-07-31T10:34:57;85793.97;;;41.69;16.04
80682;BME280;70045;40.200;44.582;2023-07-31T10:37:47;85800.59;;;41.25;16.37
80682;BME280;70045;40.200;44.582;2023-07-31T10:40:32;85800.91;;;41.58;16.72
80682;BME280;70045;40.200;44.582;2023-07-31T10:42:59;85783.75;;;41.84;16.99
80682;BME280;70045;40.200;44.582;2023-07-31T10:45:35;85789.47;;;42.18;15.64
80682;BME280;70045;40.200;44.582;2023-07-31T10:50:48;85779.09;;;42.44;15.81
80682;BME280;70045;40.200;44.582;2023-07-31T10:53:38;85779.59;;;42.70;15.38
80682;BME280;70045;40.200;44.582;2023-07-31T10:56:09;85779.44;;;42.82;14.37
80682;BME280;70045;40.200;44.582;2023-07-31T10:58:39;85779.75;;;43.36;14.20
80682;BME280;70045;40.200;44.582;2023-07-31T11:01:09;85770.34;;;43.73;14.56
80682;BME280;70045;40.200;44.582;2023-07-31T11:06:12;85766.56;;;43.80;14.02
80682;BME280;70045;40.200;44.582;2023-07-31T11:08:48;85765.94;;;44.33;14.28
80682;BME280;70045;40.200;44.582;2023-07-31T11:11:19;85767.13;;;44.64;13.60
80682;BME280;70045;40.200;44.582;2023-07-31T11:13:52;85758.34;;;44.86;12.86
80682;BME280;70045;40.200;44.582;2023-07-31T11:16:23;85758.28;;;45.22;12.90
80682;BME280;70045;40.200;44.582;2023-07-31T11:18:57;85746.91;;;45.09;11.47
80682;BME280;70045;40.200;44.582;2023-07-31T11:21:26;85750.63;;;44.80;11.90
80682;BME280;70045;40.200;44.582;2023-07-31T11:24:01;85753.22;;;44.94;12.25
80682;BME280;70045;40.200;44.582;2023-07-31T11:26:35;85748.41;;;45.33;12.12
80682;BME280;70045;40.200;44.582;2023-07-31T11:29:12;85729.69;;;45.45;11.72
80682;BME280;70045;40.200;44.582;2023-07-31T11:31:45;85744.00;;;45.63;11.63
80682;BME280;70045;40.200;44.582;2023-07-31T11:34:11;85733.69;;;46.04;12.35
80682;BME280;70045;40.200;44.582;2023-07-31T11:36:36;85731.56;;;46.22;12.46
80682;BME280;70045;40.200;44.582;2023-07-31T11:39:09;85741.56;;;46.36;11.13
80682;BME280;70045;40.200;44.582;2023-07-31T11:41:35;85727.13;;;45.91;12.71
80682;BME280;70045;40.200;44.582;2023-07-31T11:44:01;85730.63;;;45.94;12.46
80682;BME280;70045;40.200;44.582;2023-07-31T11:46:26;85733.84;;;46.52;11.79
80682;BME280;70045;40.200;44.582;2023-07-31T11:48:52;85725.13;;;46.82;11.38
80682;BME280;70045;40.200;44.582;2023-07-31T11:51:29;85730.19;;;46.68;10.47
80682;BME280;70045;40.200;44.582;2023-07-31T11:53:59;85724.47;;;47.06;10.99
80682;BME280;70045;40.200;44.582;2023-07-31T11:56:26;85720.75;;;47.21;11.45
80682;BME280;70045;40.200;44.582;2023-07-31T11:58:59;85716.63;;;46.96;10.41
80682;BME280;70045;40.200;44.582;2023-07-31T12:01:26;85713.56;;;47.34;11.30
80682;BME280;70045;40.200;44.582;2023-07-31T12:03:56;85709.22;;;47.51;10.85
80682;BME280;70045;40.200;44.582;2023-07-31T12:06:22;85712.25;;;47.61;10.61
80682;BME280;70045;40.200;44.582;2023-07-31T12:09:02;85708.88;;;47.63;9.27
80682;BME280;70045;40.200;44.582;2023-07-31T12:11:28;85714.81;;;47.55;10.30
80682;BME280;70045;40.200;44.582;2023-07-31T12:13:53;85712.31;;;47.13;10.81
80682;BME280;70045;40.200;44.582;2023-07-31T13:26:55;85737.66;;;40.49;14.34
80682;BME280;70045;40.200;44.582;2023-07-31T13:29:23;85742.59;;;39.64;16.06
80682;BME280;70045;40.200;44.582;2023-07-31T13:31:50;85741.19;;;39.39;16.63
80682;BME280;70045;40.200;44.582;2023-07-31T13:34:15;85746.63;;;37.99;17.90
80682;BME280;70045;40.200;44.582;2023-07-31T13:36:41;85742.84;;;37.06;17.95
80682;BME280;70045;40.200;44.582;2023-07-31T13:39:10;85745.75;;;36.26;19.10
80682;BME280;70045;40.200;44.582;2023-07-31T13:41:35;85747.66;;;35.65;19.24
80682;BME280;70045;40.200;44.582;2023-07-31T13:44:01;85755.00;;;35.16;19.90
80682;BME280;70045;40.200;44.582;2023-07-31T13:46:26;85759.47;;;34.74;21.19
80682;BME280;70045;40.200;44.582;2023-07-31T13:48:52;85770.88;;;34.28;21.75
80682;BME280;70045;40.200;44.582;2023-07-31T13:51:20;85768.94;;;34.11;22.12
80682;BME280;70045;40.200;44.582;2023-07-31T13:53:45;85778.47;;;34.49;21.95
80682;BME280;70045;40.200;44.582;2023-07-31T13:56:11;85777.97;;;35.17;20.65
80682;BME280;70045;40.200;44.582;2023-07-31T13:58:36;85764.97;;;36.01;19.82
80682;BME280;70045;40.200;44.582;2023-07-31T14:01:02;85768.63;;;36.98;19.38
80682;BME280;70045;40.200;44.582;2023-07-31T14:03:31;85769.25;;;37.82;18.44
80682;BME280;70045;40.200;44.582;2023-07-31T14:05:56;85764.75;;;38.42;17.40
80682;BME280;70045;40.200;44.582;2023-07-31T14:08:22;85743.13;;;38.77;17.24
80682;BME280;70045;40.200;44.582;2023-07-31T14:10:47;85738.63;;;39.29;16.94
80682;BME280;70045;40.200;44.582;2023-07-31T14:13:13;85713.63;;;39.80;16.65